createdAt,value
2019-03-28T00:01:46.226Z,1.40
2019-03-28T00:05:02.199Z,1.30
2019-03-28T00:08:18.016Z,1.23
2019-03-28T00:11:33.197Z,1.10
2019-03-28T00:14:48.889Z,1.33
2019-03-28T00:18:04.975Z,1.37
2019-03-28T00:21:20.789Z,1.00
2019-03-28T00:24:55.724Z,1.10
2019-03-28T00:28:11.287Z,1.20
2019-03-28T00:31:26.824Z,1.00
2019-03-28T00:34:42.711Z,1.40
2019-03-28T00:37:57.980Z,1.30
2019-03-28T00:41:14.046Z,1.43
2019-03-28T00:44:29.957Z,1.23
2019-03-28T00:47:45.608Z,1.10
2019-03-28T00:51:01.663Z,1.20
2019-03-28T00:54:17.228Z,1.33
2019-03-28T00:57:30.768Z,1.43
2019-03-28T01:00:53.442Z,1.30
2019-03-28T01:04:16.124Z,1.47
2019-03-28T01:07:31.643Z,1.30
2019-03-28T01:10:47.597Z,1.20
2019-03-28T01:14:03.497Z,1.40
2019-03-28T01:17:18.813Z,1.30
2019-03-28T01:20:34.036Z,1.30
2019-03-28T01:23:50.205Z,1.30
2019-03-28T01:27:06.172Z,1.63
2019-03-28T01:30:22.226Z,1.83
2019-03-28T01:33:37.746Z,1.43
2019-03-28T01:36:51.389Z,1.20
2019-03-28T01:40:06.880Z,1.20
2019-03-28T01:43:22.952Z,1.20
2019-03-28T01:46:38.187Z,1.30
2019-03-28T01:49:53.493Z,1.20
2019-03-28T01:53:09.357Z,1.40
2019-03-28T01:56:25.176Z,1.43
2019-03-28T01:59:40.461Z,1.30
2019-03-28T02:02:54.114Z,1.67
2019-03-28T02:06:16.782Z,1.20
2019-03-28T02:09:32.843Z,0.87
2019-03-28T02:12:46.423Z,1.10
2019-03-28T02:16:09.081Z,1.13
2019-03-28T02:19:25.026Z,1.50
2019-03-28T02:22:40.913Z,1.30
2019-03-28T02:25:54.523Z,1.33
2019-03-28T02:29:09.820Z,1.00
2019-03-28T02:32:25.838Z,1.40
2019-03-28T02:35:41.168Z,1.50
2019-03-28T02:38:56.441Z,1.33
2019-03-28T02:42:12.374Z,1.00
2019-03-28T02:45:28.141Z,1.20
2019-03-28T02:48:43.463Z,1.20
2019-03-28T02:51:59.479Z,1.30
2019-03-28T02:55:15.535Z,1.07
2019-03-28T02:58:31.434Z,1.00
2019-03-28T03:01:47.285Z,1.20
2019-03-28T03:05:03.229Z,1.90
2019-03-28T03:08:19.390Z,1.10
2019-03-28T03:11:35.818Z,1.03
2019-03-28T03:14:52.189Z,1.10
2019-03-28T03:18:07.894Z,1.27
2019-03-28T03:21:24.138Z,1.37
2019-03-28T03:24:40.004Z,1.10
2019-03-28T03:27:58.293Z,1.00
2019-03-28T03:31:13.061Z,1.23
2019-03-28T03:34:28.883Z,1.20
2019-03-28T03:37:44.816Z,1.33
2019-03-28T03:41:00.826Z,1.30
2019-03-28T03:44:16.253Z,1.20
2019-03-28T03:47:32.141Z,0.97
2019-03-28T03:50:48.680Z,0.90
2019-03-28T03:54:04.848Z,1.20
2019-03-28T03:57:20.853Z,1.07
2019-03-28T04:00:36.746Z,1.10
2019-03-28T04:03:52.418Z,1.37
2019-03-28T04:07:07.954Z,1.00
2019-03-28T04:10:23.959Z,1.20
2019-03-28T04:13:39.849Z,0.97
2019-03-28T04:16:55.925Z,1.33
2019-03-28T04:20:11.735Z,1.07
2019-03-28T04:23:27.067Z,1.07
2019-03-28T04:26:42.360Z,1.10
2019-03-28T04:29:58.421Z,1.20
2019-03-28T04:33:12.085Z,1.20
2019-03-28T04:36:28.182Z,1.50
2019-03-28T04:39:43.524Z,0.90
2019-03-28T04:42:58.758Z,1.00
2019-03-28T04:46:14.793Z,0.93
2019-03-28T04:49:30.740Z,1.20
2019-03-28T04:52:45.965Z,0.97
2019-03-28T04:56:01.164Z,1.50
2019-03-28T04:59:16.984Z,0.90
2019-03-28T05:05:49.438Z,1.13
2019-03-28T05:09:04.008Z,1.10
2019-03-28T05:12:26.681Z,1.30
2019-03-28T05:19:06.896Z,1.20
2019-03-28T05:22:22.494Z,0.83
2019-03-28T05:25:36.244Z,0.87
2019-03-28T05:28:59.436Z,0.93
2019-03-28T05:32:15.935Z,0.83
2019-03-28T05:35:31.070Z,1.03
2019-03-28T05:45:28.941Z,0.83
2019-03-28T05:48:44.213Z,1.20
2019-03-28T05:51:59.522Z,0.83
2019-03-28T05:55:13.161Z,0.90
2019-03-28T05:58:35.836Z,1.20
2019-03-28T06:01:51.705Z,1.07
2019-03-28T06:05:07.796Z,0.90
2019-03-28T06:08:23.505Z,1.07
2019-03-28T06:11:39.110Z,1.50
2019-03-28T06:14:55.056Z,0.90
2019-03-28T06:18:10.596Z,1.13
2019-03-28T06:21:26.366Z,0.87
2019-03-28T06:24:42.079Z,1.00
2019-03-28T06:27:59.444Z,0.87
2019-03-28T06:31:15.532Z,0.80
2019-03-28T06:34:31.393Z,0.83
2019-03-28T06:37:47.182Z,0.90
2019-03-28T06:41:02.544Z,1.00
2019-03-28T06:44:20.138Z,1.00
2019-03-28T06:47:35.666Z,1.00
2019-03-28T06:50:51.530Z,0.97
2019-03-28T06:54:06.892Z,1.03
2019-03-28T06:57:22.138Z,0.97
2019-03-28T07:00:37.585Z,1.00
2019-03-28T07:03:52.853Z,1.00
2019-03-28T07:07:10.669Z,0.80
2019-03-28T07:10:24.335Z,0.90
2019-03-28T07:13:47.068Z,0.80
2019-03-28T07:17:03.080Z,0.80
2019-03-28T07:20:19.054Z,1.20
2019-03-28T07:23:38.434Z,0.83
2019-03-28T07:26:54.377Z,0.93
2019-03-28T07:30:09.777Z,0.80
2019-03-28T07:33:25.532Z,0.90
2019-03-28T07:36:40.741Z,1.67
2019-03-28T07:39:56.696Z,1.10
2019-03-28T07:43:12.377Z,0.70
2019-03-28T07:46:28.365Z,1.17
2019-03-28T07:49:44.298Z,0.80
2019-03-28T07:53:01.385Z,1.00
2019-03-28T07:56:17.297Z,1.00
2019-03-28T07:59:33.318Z,0.83
2019-03-28T08:02:49.386Z,0.90
2019-03-28T08:06:05.126Z,0.97
2019-03-28T08:09:20.895Z,0.83
2019-03-28T08:12:34.488Z,0.87
2019-03-28T08:15:57.184Z,1.07
2019-03-28T08:19:12.499Z,0.80
2019-03-28T08:22:29.408Z,0.97
2019-03-28T08:25:50.428Z,1.70
2019-03-28T08:29:05.651Z,0.83
2019-03-28T08:32:23.493Z,1.27
2019-03-28T08:35:39.205Z,0.90
2019-03-28T08:38:55.114Z,0.80
2019-03-28T08:42:11.220Z,1.03
2019-03-28T08:45:26.419Z,1.93
2019-03-28T08:48:42.372Z,0.80
2019-03-28T08:51:58.318Z,0.90
2019-03-28T08:55:14.409Z,0.80
2019-03-28T08:58:32.057Z,0.90
2019-03-28T09:01:47.423Z,1.80
2019-03-28T09:05:03.374Z,1.20
2019-03-28T09:08:19.372Z,1.03
2019-03-28T09:11:34.746Z,0.70
2019-03-28T09:14:50.262Z,0.80
2019-03-28T09:18:06.985Z,1.20
2019-03-28T09:21:22.642Z,0.83
2019-03-28T09:24:38.646Z,0.70
2019-03-28T09:27:53.935Z,1.37
2019-03-28T09:31:19.962Z,0.90
2019-03-28T09:34:26.405Z,0.90
2019-03-28T09:37:41.617Z,0.80
2019-03-28T09:40:57.673Z,1.17
2019-03-28T09:44:13.652Z,1.53
2019-03-28T09:47:30.326Z,0.70
2019-03-28T09:50:46.470Z,1.03
2019-03-28T09:54:01.717Z,0.90
2019-03-28T09:57:17.756Z,1.33
2019-03-28T10:00:34.616Z,0.93
2019-03-28T10:03:50.199Z,1.00
2019-03-28T10:07:06.012Z,0.90
2019-03-28T10:10:21.289Z,1.00
2019-03-28T10:13:36.623Z,2.37
2019-03-28T10:16:52.630Z,0.80
2019-03-28T10:20:08.972Z,0.80
2019-03-28T10:23:27.628Z,2.17
2019-03-28T10:26:43.167Z,1.00
2019-03-28T10:29:59.038Z,2.93
2019-03-28T10:33:15.058Z,1.30
2019-03-28T10:36:31.163Z,1.57
2019-03-28T10:39:47.348Z,2.40
2019-03-28T10:43:02.684Z,1.40
2019-03-28T10:46:18.725Z,0.90
2019-03-28T10:49:34.016Z,1.27
2019-03-28T10:52:49.325Z,2.70
2019-03-28T10:56:05.264Z,2.50
2019-03-28T10:59:25.384Z,0.93
2019-03-28T11:02:38.742Z,1.00
2019-03-28T11:05:54.546Z,0.90
2019-03-28T11:09:10.393Z,1.23
2019-03-28T11:12:25.942Z,1.83
2019-03-28T11:15:41.118Z,1.53
2019-03-28T11:18:56.377Z,1.60
2019-03-28T11:22:12.366Z,0.83
2019-03-28T11:25:27.809Z,0.80
2019-03-28T11:28:43.960Z,0.93
2019-03-28T11:32:00.062Z,1.10
2019-03-28T11:35:16.112Z,0.80
2019-03-28T11:38:32.061Z,1.60
2019-03-28T11:41:47.293Z,0.67
2019-03-28T11:45:02.540Z,0.70
2019-03-28T11:48:20.304Z,0.97
2019-03-28T11:51:36.400Z,0.93
2019-03-28T11:54:52.015Z,0.80
2019-03-28T11:58:07.157Z,0.73
2019-03-28T12:01:23.127Z,2.10
2019-03-28T12:04:38.965Z,0.90
2019-03-28T12:07:54.173Z,0.87
2019-03-28T12:11:09.390Z,1.30
2019-03-28T12:14:25.218Z,1.10
2019-03-28T12:17:40.500Z,0.97
2019-03-28T12:20:56.392Z,0.80
2019-03-28T12:24:12.348Z,2.50
2019-03-28T12:27:27.496Z,1.57
2019-03-28T12:30:43.845Z,2.50
2019-03-28T12:33:59.507Z,1.00
2019-03-28T12:37:15.265Z,1.17
2019-03-28T12:40:30.640Z,0.90
2019-03-28T12:43:46.270Z,2.67
2019-03-28T12:47:01.431Z,1.53
2019-03-28T12:50:17.248Z,2.77
2019-03-28T12:53:32.548Z,0.70
2019-03-28T12:56:48.294Z,1.37
2019-03-28T13:00:04.163Z,0.87
2019-03-28T13:03:20.148Z,1.17
2019-03-28T13:06:36.030Z,1.63
2019-03-28T13:09:51.306Z,1.00
2019-03-28T13:13:07.381Z,0.77
2019-03-28T13:16:23.099Z,1.47
2019-03-28T13:19:38.338Z,0.70
2019-03-28T13:22:54.483Z,0.70
2019-03-28T13:26:10.372Z,1.23
2019-03-28T13:29:26.388Z,0.60
2019-03-28T13:32:42.683Z,0.73
2019-03-28T13:35:58.395Z,0.80
2019-03-28T13:39:14.476Z,1.17
2019-03-28T13:42:30.446Z,1.17
2019-03-28T13:45:46.325Z,0.60
2019-03-28T13:49:02.198Z,1.23
2019-03-28T13:52:17.503Z,0.70
2019-03-28T13:55:33.187Z,0.77
2019-03-28T13:58:49.137Z,1.10
2019-03-28T14:02:06.871Z,0.80
2019-03-28T14:05:23.242Z,0.80
2019-03-28T14:08:39.003Z,3.50
2019-03-28T14:11:54.343Z,1.33
2019-03-28T14:15:10.158Z,1.00
2019-03-28T14:18:26.287Z,1.57
2019-03-28T14:21:41.574Z,1.70
2019-03-28T14:24:57.471Z,3.70
2019-03-28T14:28:13.349Z,3.63
2019-03-28T14:31:31.590Z,1.33
2019-03-28T14:34:47.387Z,1.93
2019-03-28T14:38:02.821Z,1.87
2019-03-28T14:41:18.001Z,0.90
2019-03-28T14:44:33.893Z,0.87
2019-03-28T14:47:49.695Z,0.90
2019-03-28T14:51:05.890Z,1.73
2019-03-28T14:54:22.304Z,0.70
2019-03-28T14:57:37.864Z,0.80
2019-03-28T15:00:53.944Z,1.20
2019-03-28T15:07:34.164Z,0.73
2019-03-28T15:10:49.431Z,0.80
2019-03-28T15:14:05.536Z,1.63
2019-03-28T15:17:21.727Z,1.53
2019-03-28T15:20:37.119Z,1.83
2019-03-28T15:23:53.332Z,2.13
2019-03-28T15:27:09.348Z,0.70
2019-03-28T15:30:25.279Z,0.80
2019-03-28T15:33:41.382Z,1.00
2019-03-28T15:36:57.297Z,0.80
2019-03-28T15:40:13.114Z,0.90
2019-03-28T15:43:28.839Z,2.10
2019-03-28T15:46:44.948Z,1.03
2019-03-28T15:50:00.194Z,0.60
2019-03-28T15:53:15.954Z,0.77
2019-03-28T15:56:31.178Z,0.73
2019-03-28T15:59:47.125Z,2.20
2019-03-28T16:03:02.285Z,0.70
2019-03-28T16:06:17.757Z,0.93
2019-03-28T16:09:33.410Z,0.87
2019-03-28T16:12:49.159Z,2.00
2019-03-28T16:16:05.235Z,0.80
2019-03-28T16:19:20.897Z,1.83
2019-03-28T16:22:36.298Z,1.10
2019-03-28T16:29:16.980Z,1.73
2019-03-28T16:32:20.266Z,1.17
2019-03-28T16:35:43.114Z,1.43
2019-03-28T16:39:06.114Z,0.93
2019-03-28T16:42:21.836Z,1.23
2019-03-28T16:45:37.864Z,0.60
2019-03-28T16:48:53.276Z,0.93
2019-03-28T16:52:09.304Z,0.80
2019-03-28T16:55:26.606Z,1.47
2019-03-28T16:58:41.891Z,1.00
2019-03-28T17:01:57.138Z,0.80
2019-03-28T17:05:13.008Z,1.10
2019-03-28T17:08:31.228Z,6.10
2019-03-28T17:11:45.960Z,9.27
2019-03-28T17:15:01.969Z,12.00
2019-03-28T17:18:18.880Z,9.03
2019-03-28T17:21:34.583Z,7.63
2019-03-28T17:24:50.666Z,8.77
2019-03-28T17:28:06.801Z,7.83
2019-03-28T17:31:22.816Z,6.17
2019-03-28T17:34:38.173Z,9.33
2019-03-28T17:37:54.151Z,5.87
2019-03-28T17:41:09.617Z,6.80
2019-03-28T17:44:24.849Z,6.23
2019-03-28T17:47:40.150Z,6.27
2019-03-28T17:50:55.402Z,6.77
2019-03-28T17:54:11.826Z,4.90
2019-03-28T17:57:27.933Z,4.47
2019-03-28T18:00:45.057Z,4.53
2019-03-28T18:04:00.336Z,5.97
2019-03-28T18:07:16.480Z,5.97
2019-03-28T18:10:32.568Z,4.50
2019-03-28T18:13:48.590Z,6.30
2019-03-28T18:17:04.716Z,4.50
2019-03-28T18:20:20.785Z,4.83
2019-03-28T18:23:36.017Z,4.50
2019-03-28T18:26:51.889Z,4.00
2019-03-28T18:33:32.808Z,3.97
2019-03-28T18:36:48.947Z,4.00
2019-03-28T18:40:04.668Z,7.03
2019-03-28T18:43:20.728Z,3.87
2019-03-28T18:46:36.776Z,3.43
2019-03-28T18:49:52.889Z,2.83
2019-03-28T18:53:08.132Z,2.73
2019-03-28T18:56:24.177Z,2.77
2019-03-28T18:59:39.444Z,2.97
2019-03-28T19:02:54.752Z,3.17
2019-03-28T19:06:09.952Z,3.73
2019-03-28T19:09:25.367Z,2.87
2019-03-28T19:12:41.361Z,4.67
2019-03-28T19:15:56.784Z,3.00
2019-03-28T19:19:12.108Z,2.73
2019-03-28T19:22:27.377Z,2.27
2019-03-28T19:25:46.630Z,2.60
2019-03-28T19:29:00.433Z,2.87
2019-03-28T19:32:15.690Z,2.77
2019-03-28T19:35:33.075Z,2.17
2019-03-28T19:38:48.858Z,1.87
2019-03-28T19:42:04.845Z,2.03
2019-03-28T19:45:20.534Z,2.10
2019-03-28T19:48:23.777Z,1.77
2019-03-28T19:51:47.764Z,1.70
2019-03-28T19:58:52.249Z,2.27
2019-03-28T20:02:08.040Z,4.87
2019-03-28T20:05:23.756Z,2.63
2019-03-28T20:08:39.896Z,3.43
2019-03-28T20:11:59.311Z,2.60
2019-03-28T20:15:12.845Z,1.90
2019-03-28T20:18:28.308Z,1.97
2019-03-28T20:21:43.556Z,1.80
2019-03-28T20:24:58.797Z,1.60
2019-03-28T20:28:14.892Z,1.20
2019-03-28T20:31:31.657Z,2.50
2019-03-28T20:34:49.042Z,2.10
2019-03-28T20:38:04.651Z,2.27
2019-03-28T20:41:20.670Z,2.90
2019-03-28T20:44:36.491Z,1.87
2019-03-28T20:47:52.995Z,1.53
2019-03-28T20:51:08.203Z,3.73
2019-03-28T20:54:24.045Z,1.80
2019-03-28T20:57:40.509Z,1.70
2019-03-28T21:00:56.742Z,1.67
2019-03-28T21:04:12.668Z,2.53
2019-03-28T21:07:28.392Z,2.67
2019-03-28T21:10:44.401Z,1.70
2019-03-28T21:14:00.244Z,2.00
2019-03-28T21:17:16.099Z,2.00
2019-03-28T21:20:31.636Z,2.17
2019-03-28T21:23:47.461Z,1.33
2019-03-28T21:27:03.030Z,1.97
2019-03-28T21:30:18.402Z,1.40
2019-03-28T21:33:33.824Z,1.83
2019-03-28T21:36:49.043Z,1.33
2019-03-28T21:40:05.049Z,2.20
2019-03-28T21:43:21.073Z,1.80
2019-03-28T21:46:37.093Z,2.30
2019-03-28T21:49:52.771Z,1.47
2019-03-28T21:53:08.892Z,1.33
2019-03-28T21:56:24.634Z,1.30
2019-03-28T21:59:40.532Z,1.77
2019-03-28T22:02:56.485Z,1.80
2019-03-28T22:06:11.952Z,1.80
2019-03-28T22:09:27.188Z,1.20
2019-03-28T22:12:43.269Z,1.53
2019-03-28T22:15:59.269Z,2.90
2019-03-28T22:19:15.111Z,1.50
2019-03-28T22:22:30.801Z,1.60
2019-03-28T22:25:46.842Z,1.40
2019-03-28T22:29:02.861Z,1.37
2019-03-28T22:35:29.692Z,1.37
2019-03-28T22:38:52.367Z,1.70
2019-03-28T22:42:08.254Z,1.40
2019-03-28T22:45:23.785Z,1.50
2019-03-28T22:48:40.068Z,1.73
2019-03-28T22:51:55.700Z,1.50
2019-03-28T22:55:10.976Z,1.30
2019-03-28T22:58:24.555Z,1.30
2019-03-28T23:01:47.234Z,1.37
2019-03-28T23:05:03.216Z,1.50
2019-03-28T23:08:19.264Z,1.63
2019-03-28T23:18:17.229Z,1.80
2019-03-28T23:21:33.300Z,1.30
2019-03-28T23:24:49.471Z,1.30
2019-03-28T23:28:05.536Z,1.30
